createdAt,value
2024-01-28T00:02:04.103Z,14.23
2024-01-28T00:04:34.570Z,14.20
2024-01-28T00:07:07.661Z,14.14
2024-01-28T00:09:38.031Z,14.12
2024-01-28T00:12:08.927Z,14.10
2024-01-28T00:14:40.608Z,14.06
2024-01-28T00:17:12.180Z,14.03
2024-01-28T00:19:42.882Z,13.97
2024-01-28T00:22:15.619Z,13.96
2024-01-28T00:24:46.492Z,13.98
2024-01-28T00:27:16.786Z,13.92
2024-01-28T00:29:46.881Z,13.87
2024-01-28T00:32:16.921Z,13.85
2024-01-28T00:34:50.073Z,13.83
2024-01-28T00:37:25.425Z,13.81
2024-01-28T00:39:55.880Z,13.75
2024-01-28T00:42:26.872Z,13.71
2024-01-28T00:44:57.037Z,13.75
2024-01-28T00:47:29.019Z,13.73
2024-01-28T00:49:59.140Z,13.68
2024-01-28T00:52:31.883Z,13.67
2024-01-28T00:55:01.948Z,13.64
2024-01-28T00:57:32.116Z,13.62
2024-01-28T01:00:02.422Z,13.61
2024-01-28T01:02:32.516Z,13.59
2024-01-28T01:05:02.596Z,13.57
2024-01-28T01:07:35.161Z,13.58
2024-01-28T01:10:05.764Z,13.57
2024-01-28T01:12:35.781Z,13.55
2024-01-28T01:15:05.828Z,13.52
2024-01-28T01:17:35.941Z,13.51
2024-01-28T01:20:06.049Z,13.51
2024-01-28T01:22:38.692Z,13.50
2024-01-28T01:25:09.234Z,13.47
2024-01-28T01:27:39.325Z,13.48
2024-01-28T01:30:10.374Z,13.46
2024-01-28T01:32:42.168Z,13.44
2024-01-28T01:35:12.924Z,13.44
2024-01-28T01:37:45.709Z,13.45
2024-01-28T01:40:17.635Z,13.42
2024-01-28T01:42:47.778Z,13.41
2024-01-28T01:45:17.903Z,13.39
2024-01-28T01:47:49.761Z,13.39
2024-01-28T01:50:19.918Z,13.39
2024-01-28T01:52:54.345Z,13.38
2024-01-28T01:55:24.346Z,13.37
2024-01-28T01:57:54.388Z,13.35
2024-01-28T02:00:24.962Z,13.35
2024-01-28T02:02:55.201Z,13.33
2024-01-28T02:05:25.888Z,13.32
2024-01-28T02:07:58.598Z,13.31
2024-01-28T02:10:28.512Z,13.29
2024-01-28T02:12:58.528Z,13.24
2024-01-28T02:15:28.453Z,13.29
2024-01-28T02:17:58.579Z,13.28
2024-01-28T02:20:28.554Z,13.25
2024-01-28T02:23:01.523Z,13.24
2024-01-28T02:25:34.646Z,13.21
2024-01-28T02:28:04.763Z,13.24
2024-01-28T02:30:34.873Z,13.22
2024-01-28T02:33:05.164Z,13.21
2024-01-28T02:35:36.616Z,13.24
2024-01-28T02:38:06.662Z,13.17
2024-01-28T02:40:39.312Z,13.20
2024-01-28T02:43:09.318Z,13.20
2024-01-28T02:45:39.436Z,13.20
2024-01-28T02:48:09.971Z,13.19
2024-01-28T02:50:39.957Z,13.19
2024-01-28T02:53:10.690Z,13.21
2024-01-28T02:55:43.255Z,13.19
2024-01-28T02:58:13.226Z,13.16
2024-01-28T03:00:43.268Z,13.16
2024-01-28T03:03:13.393Z,13.16
2024-01-28T03:05:43.451Z,13.17
2024-01-28T03:08:13.378Z,13.14
2024-01-28T03:10:46.146Z,13.13
2024-01-28T03:13:16.614Z,13.11
2024-01-28T03:15:47.248Z,13.06
2024-01-28T03:18:17.422Z,13.09
2024-01-28T03:20:47.415Z,13.06
2024-01-28T03:23:18.067Z,13.06
2024-01-28T03:25:50.996Z,13.06
2024-01-28T03:28:21.362Z,13.06
2024-01-28T03:30:51.369Z,13.05
2024-01-28T03:33:22.020Z,13.03
2024-01-28T03:35:52.033Z,13.04
2024-01-28T03:38:22.211Z,13.05
2024-01-28T03:40:54.919Z,13.09
2024-01-28T03:43:24.841Z,13.08
2024-01-28T03:45:54.695Z,13.07
2024-01-28T03:48:25.001Z,13.08
2024-01-28T03:50:55.010Z,13.08
2024-01-28T03:53:24.980Z,13.08
2024-01-28T03:55:57.500Z,13.09
2024-01-28T03:58:27.465Z,13.10
2024-01-28T04:00:57.530Z,13.10
2024-01-28T04:03:27.696Z,13.09
2024-01-28T04:05:57.700Z,13.08
2024-01-28T04:08:27.637Z,13.09
2024-01-28T04:11:00.272Z,13.08
2024-01-28T04:13:30.329Z,13.08
2024-01-28T04:16:00.348Z,13.09
2024-01-28T04:18:30.405Z,13.09
2024-01-28T04:21:00.438Z,13.08
2024-01-28T04:23:30.409Z,13.09
2024-01-28T04:26:03.195Z,13.10
2024-01-28T04:28:33.263Z,13.10
2024-01-28T04:31:04.264Z,13.11
2024-01-28T04:33:34.283Z,13.12
2024-01-28T04:36:04.387Z,13.12
2024-01-28T04:38:35.455Z,13.12
2024-01-28T04:41:08.230Z,13.11
2024-01-28T04:43:39.823Z,13.11
2024-01-28T04:46:10.139Z,13.09
2024-01-28T04:48:40.136Z,13.12
2024-01-28T04:51:10.181Z,13.11
2024-01-28T04:53:40.171Z,13.06
2024-01-28T04:56:14.008Z,13.11
2024-01-28T04:58:44.005Z,13.13
2024-01-28T05:01:13.989Z,13.12
2024-01-28T05:03:44.089Z,13.13
2024-01-28T05:06:14.117Z,13.12
2024-01-28T05:08:44.796Z,13.12
2024-01-28T05:11:17.396Z,13.12
2024-01-28T05:13:47.368Z,13.10
2024-01-28T05:16:17.246Z,13.13
2024-01-28T05:18:47.286Z,13.12
2024-01-28T05:21:17.291Z,13.11
2024-01-28T05:23:47.294Z,13.11
2024-01-28T05:26:19.838Z,13.11
2024-01-28T05:28:50.629Z,13.09
2024-01-28T05:31:20.517Z,13.11
2024-01-28T05:33:50.470Z,13.10
2024-01-28T05:36:23.475Z,13.10
2024-01-28T05:38:53.430Z,13.09
2024-01-28T05:41:26.443Z,13.08
2024-01-28T05:43:56.408Z,13.08
2024-01-28T05:46:26.400Z,13.08
2024-01-28T05:48:56.946Z,13.08
2024-01-28T05:51:28.561Z,13.09
2024-01-28T05:53:58.982Z,13.09
2024-01-28T05:56:31.490Z,13.08
2024-01-28T05:59:01.395Z,13.07
2024-01-28T06:01:31.332Z,13.07
2024-01-28T06:04:01.507Z,13.07
2024-01-28T06:06:31.565Z,13.06
2024-01-28T06:09:01.486Z,13.07
2024-01-28T06:11:34.276Z,13.07
2024-01-28T06:14:04.144Z,13.08
2024-01-28T06:16:34.097Z,13.08
2024-01-28T06:19:04.183Z,13.08
2024-01-28T06:21:35.207Z,13.03
2024-01-28T06:24:05.093Z,13.08
2024-01-28T06:26:40.045Z,13.07
2024-01-28T06:29:09.981Z,13.07
2024-01-28T06:31:39.898Z,13.06
2024-01-28T06:34:09.899Z,13.05
2024-01-28T06:36:39.956Z,13.07
2024-01-28T06:39:10.336Z,13.07
2024-01-28T06:41:43.495Z,13.03
2024-01-28T06:44:13.582Z,13.04
2024-01-28T06:46:43.657Z,13.07
2024-01-28T06:49:16.777Z,13.08
2024-01-28T06:51:48.691Z,13.10
2024-01-28T06:54:20.189Z,13.10
2024-01-28T06:56:52.947Z,13.08
2024-01-28T06:59:22.859Z,13.12
2024-01-28T07:01:52.937Z,13.10
2024-01-28T07:04:23.064Z,13.12
2024-01-28T07:06:53.186Z,13.12
2024-01-28T07:09:23.178Z,13.12
2024-01-28T07:11:55.731Z,13.13
2024-01-28T07:14:26.482Z,13.13
2024-01-28T07:16:56.708Z,13.14
2024-01-28T07:19:26.649Z,13.10
2024-01-28T07:21:56.635Z,13.15
2024-01-28T07:24:26.690Z,13.15
2024-01-28T07:27:00.078Z,13.17
2024-01-28T07:29:30.057Z,13.18
2024-01-28T07:32:00.130Z,13.18
2024-01-28T07:34:30.665Z,13.19
2024-01-28T07:37:00.816Z,13.19
2024-01-28T07:39:30.943Z,13.19
2024-01-28T07:42:04.073Z,13.20
2024-01-28T07:44:34.156Z,13.21
2024-01-28T07:47:05.118Z,13.21
2024-01-28T07:49:35.488Z,13.16
2024-01-28T07:52:05.612Z,13.21
2024-01-28T07:54:35.689Z,13.20
2024-01-28T07:57:08.484Z,13.22
2024-01-28T07:59:38.517Z,13.22
2024-01-28T08:02:09.164Z,13.23
2024-01-28T08:04:39.547Z,13.23
2024-01-28T08:07:09.572Z,13.23
2024-01-28T08:09:39.594Z,13.24
2024-01-28T08:12:12.566Z,13.22
2024-01-28T08:14:42.657Z,13.22
2024-01-28T08:17:14.988Z,13.23
2024-01-28T08:19:45.117Z,13.23
2024-01-28T08:22:15.659Z,13.23
2024-01-28T08:24:45.802Z,13.24
2024-01-28T08:27:19.025Z,13.23
2024-01-28T08:29:52.258Z,13.24
2024-01-28T08:32:23.351Z,13.23
2024-01-28T08:34:53.442Z,13.24
2024-01-28T08:37:24.697Z,13.24
2024-01-28T08:39:55.153Z,13.25
2024-01-28T08:42:29.067Z,13.24
2024-01-28T08:44:59.054Z,13.27
2024-01-28T08:47:31.561Z,13.26
2024-01-28T08:50:02.858Z,13.25
2024-01-28T08:52:33.047Z,13.23
2024-01-28T08:55:03.069Z,13.22
2024-01-28T08:57:36.041Z,13.24
2024-01-28T09:00:06.801Z,13.30
2024-01-28T09:02:37.747Z,13.32
2024-01-28T09:05:09.680Z,13.34
2024-01-28T09:07:40.052Z,13.35
2024-01-28T09:10:11.106Z,13.30
2024-01-28T09:12:44.467Z,13.37
2024-01-28T09:15:14.881Z,13.24
2024-01-28T09:17:45.454Z,13.27
2024-01-28T09:20:15.725Z,13.30
2024-01-28T09:22:45.794Z,13.34
2024-01-28T09:25:15.963Z,13.37
2024-01-28T09:27:50.373Z,13.39
2024-01-28T09:30:20.705Z,13.40
2024-01-28T09:32:52.484Z,13.40
2024-01-28T09:35:22.685Z,13.03
2024-01-28T09:37:52.831Z,13.07
2024-01-28T09:40:22.957Z,13.07
2024-01-28T09:43:09.005Z,13.18
2024-01-28T09:45:39.050Z,13.25
2024-01-28T09:48:12.697Z,13.25
2024-01-28T09:50:43.940Z,13.31
2024-01-28T09:53:14.866Z,13.35
2024-01-28T09:55:45.157Z,13.36
2024-01-28T09:58:17.992Z,13.45
2024-01-28T10:00:49.097Z,13.49
2024-01-28T10:03:19.235Z,13.52
2024-01-28T10:05:51.571Z,13.58
2024-01-28T10:08:22.348Z,13.60
2024-01-28T10:10:52.474Z,13.66
2024-01-28T10:13:25.272Z,13.68
2024-01-28T10:16:00.076Z,13.68
2024-01-28T10:18:30.720Z,13.68
2024-01-28T10:21:00.978Z,13.68
2024-01-28T10:23:31.130Z,13.64
2024-01-28T10:26:02.088Z,13.64
2024-01-28T10:28:34.956Z,13.68
2024-01-28T10:31:05.512Z,13.69
2024-01-28T10:33:35.840Z,13.68
2024-01-28T10:36:08.056Z,13.70
2024-01-28T10:38:39.217Z,13.70
2024-01-28T10:41:09.360Z,13.74
2024-01-28T10:43:43.753Z,13.76
2024-01-28T10:46:17.878Z,13.75
2024-01-28T10:48:52.831Z,13.73
2024-01-28T10:51:23.599Z,13.80
2024-01-28T10:53:54.603Z,13.83
2024-01-28T10:56:24.911Z,13.87
2024-01-28T10:58:57.671Z,13.83
2024-01-28T11:01:28.156Z,13.86
2024-01-28T11:04:01.818Z,13.86
2024-01-28T11:06:33.627Z,13.87
2024-01-28T11:09:05.017Z,13.86
2024-01-28T11:11:35.541Z,13.86
2024-01-28T11:14:12.763Z,13.87
2024-01-28T11:16:45.618Z,13.97
2024-01-28T11:19:18.688Z,13.95
2024-01-28T11:21:54.708Z,13.99
2024-01-28T11:24:25.331Z,14.04
2024-01-28T11:27:00.425Z,14.13
2024-01-28T11:29:39.262Z,14.13
2024-01-28T11:32:11.205Z,14.29
2024-01-28T11:34:41.484Z,14.40
2024-01-28T11:37:11.579Z,14.49
2024-01-28T11:39:47.226Z,14.56
2024-01-28T11:42:17.737Z,14.65
2024-01-28T11:44:50.981Z,14.70
2024-01-28T11:47:24.166Z,14.80
2024-01-28T11:49:54.359Z,14.94
2024-01-28T11:52:25.389Z,15.14
2024-01-28T11:54:55.735Z,15.27
2024-01-28T11:57:25.898Z,15.38
2024-01-28T11:59:58.651Z,15.48
2024-01-28T12:02:29.045Z,15.51
2024-01-28T12:04:59.764Z,15.64
2024-01-28T12:07:29.991Z,15.51
2024-01-28T12:10:00.669Z,15.49
2024-01-28T12:12:35.994Z,15.45
2024-01-28T12:15:09.625Z,15.46
2024-01-28T12:17:40.226Z,15.47
2024-01-28T12:20:11.328Z,15.51
2024-01-28T12:22:41.876Z,15.57
2024-01-28T12:25:13.451Z,15.69
2024-01-28T12:27:44.532Z,15.69
2024-01-28T12:30:19.327Z,15.66
2024-01-28T12:32:49.732Z,15.87
2024-01-28T12:35:19.812Z,15.92
2024-01-28T12:37:49.907Z,15.92
2024-01-28T12:40:20.015Z,15.96
2024-01-28T12:42:50.103Z,15.99
2024-01-28T12:45:22.796Z,16.03
2024-01-28T12:47:52.846Z,16.26
2024-01-28T12:50:22.829Z,16.41
2024-01-28T12:52:53.171Z,16.56
2024-01-28T12:55:23.453Z,16.67
2024-01-28T12:57:53.552Z,16.77
2024-01-28T13:00:26.977Z,16.88
2024-01-28T13:02:56.899Z,16.99
2024-01-28T13:05:27.083Z,17.07
2024-01-28T13:07:57.129Z,17.12
2024-01-28T13:10:27.359Z,17.18
2024-01-28T13:12:57.463Z,17.29
2024-01-28T13:15:30.434Z,17.31
2024-01-28T13:18:00.474Z,17.34
2024-01-28T13:20:30.860Z,17.33
2024-01-28T13:23:01.118Z,17.35
2024-01-28T13:25:31.127Z,17.40
2024-01-28T13:28:01.737Z,17.41
2024-01-28T13:30:34.486Z,17.42
2024-01-28T13:33:05.128Z,17.45
2024-01-28T13:35:35.261Z,17.42
2024-01-28T13:38:05.610Z,17.45
2024-01-28T13:40:35.953Z,17.50
2024-01-28T13:43:08.842Z,17.46
2024-01-28T13:45:41.631Z,17.45
2024-01-28T13:48:12.246Z,17.36
2024-01-28T13:50:42.566Z,17.36
2024-01-28T13:53:13.400Z,17.37
2024-01-28T13:55:43.452Z,17.44
2024-01-28T13:58:13.576Z,17.49
2024-01-28T14:00:46.518Z,17.58
2024-01-28T14:03:17.953Z,17.68
2024-01-28T14:05:48.426Z,17.76
2024-01-28T14:08:18.732Z,17.88
2024-01-28T14:10:48.746Z,17.82
2024-01-28T14:13:18.794Z,17.90
2024-01-28T14:15:51.678Z,17.94
2024-01-28T14:18:24.831Z,17.95
2024-01-28T14:20:55.318Z,18.02
2024-01-28T14:23:26.091Z,17.98
2024-01-28T14:26:04.899Z,17.98
2024-01-28T14:28:35.096Z,17.99
2024-01-28T14:31:08.125Z,17.74
2024-01-28T14:33:38.562Z,17.65
2024-01-28T14:36:09.412Z,17.54
2024-01-28T14:38:40.011Z,17.44
2024-01-28T14:41:11.247Z,17.37
2024-01-28T14:43:42.334Z,17.34
2024-01-28T14:46:16.130Z,17.30
2024-01-28T14:48:46.590Z,17.27
2024-01-28T14:51:17.146Z,17.20
2024-01-28T14:53:47.410Z,17.14
2024-01-28T14:56:17.684Z,17.12
2024-01-28T14:58:47.910Z,17.03
2024-01-28T15:01:20.928Z,16.98
2024-01-28T15:03:51.162Z,17.00
2024-01-28T15:06:22.414Z,16.96
2024-01-28T15:08:52.839Z,16.94
2024-01-28T15:11:30.506Z,16.80
2024-01-28T15:14:00.532Z,16.76
2024-01-28T15:16:33.293Z,16.71
2024-01-28T15:19:03.798Z,16.63
2024-01-28T15:21:34.001Z,16.57
2024-01-28T15:24:04.851Z,16.55
2024-01-28T15:26:35.053Z,16.52
2024-01-28T15:29:05.271Z,16.44
2024-01-28T15:31:37.929Z,16.38
2024-01-28T15:34:08.115Z,16.28
2024-01-28T15:36:38.449Z,16.37
2024-01-28T15:39:08.711Z,16.27
2024-01-28T15:41:38.906Z,16.25
2024-01-28T15:44:09.192Z,16.19
2024-01-28T15:46:41.857Z,16.30
2024-01-28T15:49:13.184Z,16.37
2024-01-28T15:51:43.387Z,16.46
2024-01-28T15:54:13.683Z,16.50
2024-01-28T15:56:43.649Z,16.56
2024-01-28T15:59:13.863Z,16.62
2024-01-28T16:01:46.827Z,16.65
2024-01-28T16:04:17.159Z,16.69
2024-01-28T16:06:47.747Z,16.71
2024-01-28T16:09:18.039Z,16.78
2024-01-28T16:11:48.075Z,16.81
2024-01-28T16:14:20.165Z,16.91
2024-01-28T16:16:53.055Z,17.00
2024-01-28T16:19:23.757Z,17.06
2024-01-28T16:21:54.058Z,17.06
2024-01-28T16:24:25.168Z,17.02
2024-01-28T16:26:57.077Z,17.01
2024-01-28T16:29:27.871Z,17.17
2024-01-28T16:32:01.377Z,17.17
2024-01-28T16:34:32.116Z,17.16
2024-01-28T16:37:02.288Z,17.18
2024-01-28T16:39:36.476Z,17.09
2024-01-28T16:42:06.725Z,17.03
2024-01-28T16:44:39.173Z,17.00
2024-01-28T16:47:13.002Z,17.08
2024-01-28T16:49:45.686Z,17.18
2024-01-28T16:52:20.414Z,17.23
2024-01-28T16:54:51.488Z,17.28
2024-01-28T16:57:21.902Z,17.30
2024-01-28T16:59:52.154Z,17.30
2024-01-28T17:02:27.959Z,17.14
2024-01-28T17:04:59.811Z,17.01
2024-01-28T17:07:31.028Z,16.81
2024-01-28T17:10:01.661Z,16.71
2024-01-28T17:12:32.064Z,16.60
2024-01-28T17:15:02.897Z,16.55
2024-01-28T17:17:37.661Z,16.53
2024-01-28T17:20:10.277Z,16.49
2024-01-28T17:22:40.688Z,16.72
2024-01-28T17:25:14.660Z,16.77
2024-01-28T17:27:45.269Z,16.68
2024-01-28T17:30:16.730Z,16.71
2024-01-28T17:32:51.806Z,16.74
2024-01-28T17:35:22.375Z,16.73
2024-01-28T17:37:52.735Z,16.75
2024-01-28T17:40:23.379Z,16.82
2024-01-28T17:42:53.581Z,16.85
2024-01-28T17:45:25.542Z,16.94
2024-01-28T17:48:00.013Z,16.95
2024-01-28T17:50:30.443Z,17.00
2024-01-28T17:53:02.570Z,17.03
2024-01-28T17:55:33.291Z,17.22
2024-01-28T17:58:04.020Z,17.35
2024-01-28T18:00:34.442Z,17.45
2024-01-28T18:03:07.863Z,17.60
2024-01-28T18:05:38.117Z,17.69
2024-01-28T18:08:09.315Z,17.64
2024-01-28T18:10:40.349Z,17.48
2024-01-28T18:13:10.881Z,17.55
2024-01-28T18:15:41.456Z,17.49
2024-01-28T18:18:15.403Z,17.46
2024-01-28T18:20:48.122Z,17.46
2024-01-28T18:23:19.854Z,17.56
2024-01-28T18:25:56.246Z,17.41
2024-01-28T18:28:27.942Z,17.55
2024-01-28T18:31:00.966Z,17.56
2024-01-28T18:33:36.866Z,17.50
2024-01-28T18:36:08.809Z,17.45
2024-01-28T18:38:39.546Z,17.45
2024-01-28T18:41:10.682Z,17.54
2024-01-28T18:43:42.333Z,17.53
2024-01-28T18:46:13.046Z,17.55
2024-01-28T18:48:46.192Z,17.52
2024-01-28T18:51:17.842Z,17.53
2024-01-28T18:53:48.489Z,17.47
2024-01-28T18:56:20.358Z,17.51
2024-01-28T18:58:51.567Z,17.47
2024-01-28T19:01:23.776Z,17.44
2024-01-28T19:03:58.087Z,17.40
2024-01-28T19:06:31.286Z,17.29
2024-01-28T19:09:01.841Z,17.25
2024-01-28T19:11:33.963Z,17.23
2024-01-28T19:14:04.692Z,17.13
2024-01-28T19:16:37.832Z,17.09
2024-01-28T19:19:11.555Z,17.07
2024-01-28T19:21:42.276Z,17.13
2024-01-28T19:24:12.873Z,17.27
2024-01-28T19:26:43.430Z,17.30
2024-01-28T19:29:16.770Z,17.32
2024-01-28T19:31:47.502Z,17.39
2024-01-28T19:34:22.891Z,17.43
2024-01-28T19:36:54.178Z,17.56
2024-01-28T19:39:29.734Z,17.65
2024-01-28T19:42:01.052Z,17.67
2024-01-28T19:44:36.180Z,17.72
2024-01-28T19:47:12.504Z,17.83
2024-01-28T19:49:47.109Z,17.92
2024-01-28T19:52:19.860Z,17.95
2024-01-28T19:54:50.930Z,18.03
2024-01-28T19:57:21.585Z,18.11
2024-01-28T19:59:55.030Z,18.16
2024-01-28T20:02:25.592Z,18.17
2024-01-28T20:04:58.978Z,18.17
2024-01-28T20:07:30.956Z,18.20
2024-01-28T20:10:07.594Z,18.38
2024-01-28T20:12:40.564Z,18.70
2024-01-28T20:15:12.240Z,18.94
2024-01-28T20:17:42.848Z,18.82
2024-01-28T20:20:20.603Z,18.78
2024-01-28T20:22:53.971Z,18.75
2024-01-28T20:25:24.845Z,18.80
2024-01-28T20:27:56.362Z,18.81
2024-01-28T20:30:34.781Z,18.81
2024-01-28T20:33:08.235Z,18.81
2024-01-28T20:35:41.715Z,18.59
2024-01-28T20:38:12.860Z,18.47
2024-01-28T20:40:44.623Z,18.36
2024-01-28T20:43:15.575Z,18.29
2024-01-28T20:45:50.782Z,18.21
2024-01-28T20:48:23.767Z,18.17
2024-01-28T20:50:57.448Z,18.50
2024-01-28T20:53:29.933Z,18.49
2024-01-28T20:56:04.173Z,18.46
2024-01-28T20:58:37.060Z,18.41
2024-01-28T21:01:10.679Z,18.39
2024-01-28T21:03:41.951Z,18.11
2024-01-28T21:06:19.779Z,17.96
2024-01-28T21:08:54.141Z,17.84
2024-01-28T21:11:28.756Z,17.71
2024-01-28T21:14:05.733Z,17.60
2024-01-28T21:16:36.737Z,17.66
2024-01-28T21:19:09.802Z,17.72
2024-01-28T21:21:47.087Z,17.81
2024-01-28T21:24:20.161Z,17.86
2024-01-28T21:26:55.738Z,17.91
2024-01-28T21:29:29.852Z,17.93
2024-01-28T21:32:02.149Z,18.03
2024-01-28T21:34:33.303Z,18.05
2024-01-28T21:37:09.745Z,18.08
2024-01-28T21:39:41.485Z,18.12
2024-01-28T21:42:12.692Z,18.23
2024-01-28T21:44:50.549Z,18.24
2024-01-28T21:47:24.790Z,18.17
2024-01-28T21:49:55.740Z,18.40
2024-01-28T21:52:30.892Z,18.60
2024-01-28T21:55:01.910Z,18.37
2024-01-28T21:57:44.125Z,18.25
2024-01-28T22:00:15.953Z,18.17
2024-01-28T22:02:47.128Z,18.14
2024-01-28T22:05:18.907Z,18.17
2024-01-28T22:07:52.361Z,18.14
2024-01-28T22:10:23.001Z,18.12
2024-01-28T22:13:03.742Z,18.07
2024-01-28T22:15:35.906Z,18.08
2024-01-28T22:18:13.762Z,17.97
2024-01-28T22:20:44.709Z,17.80
2024-01-28T22:23:18.739Z,17.87
2024-01-28T22:25:51.286Z,17.72
2024-01-28T22:28:22.766Z,17.75
2024-01-28T22:30:56.364Z,17.63
2024-01-28T22:33:30.892Z,17.51
2024-01-28T22:36:05.307Z,17.39
2024-01-28T22:38:42.370Z,17.30
2024-01-28T22:41:13.343Z,17.21
2024-01-28T22:43:45.141Z,17.15
2024-01-28T22:46:15.958Z,17.08
2024-01-28T22:48:46.575Z,16.98
2024-01-28T22:51:17.546Z,16.94
2024-01-28T22:53:51.209Z,16.88
2024-01-28T22:56:21.730Z,16.78
2024-01-28T22:58:53.939Z,16.74
2024-01-28T23:01:27.250Z,16.67
2024-01-28T23:04:00.948Z,16.59
2024-01-28T23:06:31.803Z,16.51
2024-01-28T23:09:05.027Z,16.50
2024-01-28T23:11:36.249Z,16.42
2024-01-28T23:14:06.812Z,16.36
2024-01-28T23:16:37.300Z,16.24
2024-01-28T23:19:08.420Z,16.22
2024-01-28T23:21:39.065Z,16.11
2024-01-28T23:24:12.468Z,16.08
2024-01-28T23:26:43.126Z,16.06
2024-01-28T23:29:13.935Z,15.99
2024-01-28T23:31:44.704Z,15.94
2024-01-28T23:34:16.300Z,15.92
2024-01-28T23:36:46.954Z,15.84
2024-01-28T23:39:21.533Z,15.74
2024-01-28T23:41:51.917Z,15.67
2024-01-28T23:44:22.132Z,15.62
2024-01-28T23:46:52.664Z,15.56
2024-01-28T23:49:23.498Z,15.55
2024-01-28T23:51:53.694Z,15.50
2024-01-28T23:54:26.661Z,15.40
2024-01-28T23:56:57.411Z,15.40
2024-01-28T23:59:27.797Z,15.35
